sensor_id;sensor_type;location;lat;lon;timestamp;P1;durP1;ratioP1;P2;durP2;ratioP2
15814;SDS011;8008;50.024;8.172;2023-04-06T03:01:13;8.70;;;6.40;;
15814;SDS011;8008;50.024;8.172;2023-04-06T03:03:42;9.63;;;6.33;;
15814;SDS011;8008;50.024;8.172;2023-04-06T03:06:19;9.53;;;6.80;;
15814;SDS011;8008;50.024;8.172;2023-04-06T03:08:50;10.13;;;6.30;;
15814;SDS011;8008;50.024;8.172;2023-04-06T03:11:19;9.27;;;6.20;;
15814;SDS011;8008;50.024;8.172;2023-04-06T03:13:49;8.37;;;6.00;;
15814;SDS011;8008;50.024;8.172;2023-04-06T03:16:19;8.47;;;5.83;;
15814;SDS011;8008;50.024;8.172;2023-04-06T03:18:47;7.30;;;5.60;;
15814;SDS011;8008;50.024;8.172;2023-04-06T03:21:15;8.33;;;6.00;;
15814;SDS011;8008;50.024;8.172;2023-04-06T03:23:49;9.03;;;6.03;;
15814;SDS011;8008;50.024;8.172;2023-04-06T03:26:17;7.63;;;5.83;;
15814;SDS011;8008;50.024;8.172;2023-04-06T03:28:45;9.07;;;6.00;;
15814;SDS011;8008;50.024;8.172;2023-04-06T03:31:14;10.00;;;5.50;;
15814;SDS011;8008;50.024;8.172;2023-04-06T03:33:53;8.37;;;6.13;;
15814;SDS011;8008;50.024;8.172;2023-04-06T03:36:25;7.57;;;5.53;;
15814;SDS011;8008;50.024;8.172;2023-04-06T03:38:55;9.47;;;6.33;;
15814;SDS011;8008;50.024;8.172;2023-04-06T03:41:24;10.23;;;6.83;;
15814;SDS011;8008;50.024;8.172;2023-04-06T03:44:05;10.43;;;7.07;;
15814;SDS011;8008;50.024;8.172;2023-04-06T03:46:37;10.53;;;6.80;;
15814;SDS011;8008;50.024;8.172;2023-04-06T03:49:06;12.07;;;7.13;;
15814;SDS011;8008;50.024;8.172;2023-04-06T03:51:34;10.93;;;7.00;;
15814;SDS011;8008;50.024;8.172;2023-04-06T03:54:02;12.20;;;7.73;;
15814;SDS011;8008;50.024;8.172;2023-04-06T03:56:30;11.03;;;7.40;;
15814;SDS011;8008;50.024;8.172;2023-04-06T03:58:58;10.63;;;7.20;;
15814;SDS011;8008;50.024;8.172;2023-04-06T04:01:27;9.83;;;7.40;;
15814;SDS011;8008;50.024;8.172;2023-04-06T04:03:55;11.27;;;7.47;;
15814;SDS011;8008;50.024;8.172;2023-04-06T04:06:25;9.70;;;7.57;;
15814;SDS011;8008;50.024;8.172;2023-04-06T04:08:55;12.43;;;7.90;;
15814;SDS011;8008;50.024;8.172;2023-04-06T04:11:23;10.80;;;7.40;;
15814;SDS011;8008;50.024;8.172;2023-04-06T04:13:56;12.27;;;7.70;;
15814;SDS011;8008;50.024;8.172;2023-04-06T04:16:24;10.37;;;8.07;;
15814;SDS011;8008;50.024;8.172;2023-04-06T04:18:52;10.40;;;7.20;;
15814;SDS011;8008;50.024;8.172;2023-04-06T04:21:28;11.87;;;7.57;;
15814;SDS011;8008;50.024;8.172;2023-04-06T04:23:59;11.70;;;7.73;;
15814;SDS011;8008;50.024;8.172;2023-04-06T04:26:29;10.73;;;7.93;;
15814;SDS011;8008;50.024;8.172;2023-04-06T04:28:57;11.47;;;8.13;;
15814;SDS011;8008;50.024;8.172;2023-04-06T04:31:26;13.20;;;8.13;;
15814;SDS011;8008;50.024;8.172;2023-04-06T04:33:59;12.57;;;8.50;;
15814;SDS011;8008;50.024;8.172;2023-04-06T04:36:34;12.60;;;8.23;;
15814;SDS011;8008;50.024;8.172;2023-04-06T04:39:06;11.93;;;8.43;;
15814;SDS011;8008;50.024;8.172;2023-04-06T04:41:39;13.73;;;8.70;;
15814;SDS011;8008;50.024;8.172;2023-04-06T04:44:09;11.60;;;8.00;;
15814;SDS011;8008;50.024;8.172;2023-04-06T04:46:38;17.23;;;9.73;;
15814;SDS011;8008;50.024;8.172;2023-04-06T04:49:10;13.83;;;10.03;;
15814;SDS011;8008;50.024;8.172;2023-04-06T04:51:41;15.00;;;10.33;;
15814;SDS011;8008;50.024;8.172;2023-04-06T04:54:18;15.97;;;10.20;;
15814;SDS011;8008;50.024;8.172;2023-04-06T04:56:46;15.33;;;9.53;;
15814;SDS011;8008;50.024;8.172;2023-04-06T04:59:43;15.07;;;9.07;;
15814;SDS011;8008;50.024;8.172;2023-04-06T05:02:16;15.83;;;9.20;;
15814;SDS011;8008;50.024;8.172;2023-04-06T05:04:56;14.53;;;8.80;;
15814;SDS011;8008;50.024;8.172;2023-04-06T05:07:27;12.87;;;8.10;;
15814;SDS011;8008;50.024;8.172;2023-04-06T05:09:57;12.30;;;8.70;;
15814;SDS011;8008;50.024;8.172;2023-04-06T05:12:29;12.77;;;8.40;;
15814;SDS011;8008;50.024;8.172;2023-04-06T05:15:10;12.23;;;8.30;;
15814;SDS011;8008;50.024;8.172;2023-04-06T05:17:38;13.83;;;8.63;;
15814;SDS011;8008;50.024;8.172;2023-04-06T05:20:10;11.20;;;8.60;;
15814;SDS011;8008;50.024;8.172;2023-04-06T05:22:46;13.30;;;8.70;;
15814;SDS011;8008;50.024;8.172;2023-04-06T05:25:14;13.27;;;9.00;;
15814;SDS011;8008;50.024;8.172;2023-04-06T05:27:44;14.47;;;9.27;;
15814;SDS011;8008;50.024;8.172;2023-04-06T05:30:38;13.43;;;8.97;;
15814;SDS011;8008;50.024;8.172;2023-04-06T05:33:08;12.50;;;8.97;;
15814;SDS011;8008;50.024;8.172;2023-04-06T05:35:54;13.30;;;9.27;;
15814;SDS011;8008;50.024;8.172;2023-04-06T05:38:24;15.13;;;8.90;;
15814;SDS011;8008;50.024;8.172;2023-04-06T05:40:54;14.43;;;8.77;;
15814;SDS011;8008;50.024;8.172;2023-04-06T05:43:28;15.13;;;8.90;;
15814;SDS011;8008;50.024;8.172;2023-04-06T05:45:58;15.27;;;9.10;;
15814;SDS011;8008;50.024;8.172;2023-04-06T05:48:28;15.13;;;9.47;;
15814;SDS011;8008;50.024;8.172;2023-04-06T05:50:58;15.67;;;9.03;;
15814;SDS011;8008;50.024;8.172;2023-04-06T05:53:40;15.43;;;9.63;;
15814;SDS011;8008;50.024;8.172;2023-04-06T05:56:14;15.87;;;9.63;;
15814;SDS011;8008;50.024;8.172;2023-04-06T05:58:43;13.57;;;9.47;;
15814;SDS011;8008;50.024;8.172;2023-04-06T06:01:14;14.30;;;9.23;;
15814;SDS011;8008;50.024;8.172;2023-04-06T06:03:45;13.07;;;9.17;;
15814;SDS011;8008;50.024;8.172;2023-04-06T06:06:14;16.30;;;9.30;;
15814;SDS011;8008;50.024;8.172;2023-04-06T06:08:56;11.97;;;8.40;;
15814;SDS011;8008;50.024;8.172;2023-04-06T06:11:25;13.67;;;9.07;;
15814;SDS011;8008;50.024;8.172;2023-04-06T06:13:57;13.57;;;9.10;;
15814;SDS011;8008;50.024;8.172;2023-04-06T06:16:25;14.53;;;9.00;;
15814;SDS011;8008;50.024;8.172;2023-04-06T06:18:53;17.63;;;9.13;;
15814;SDS011;8008;50.024;8.172;2023-04-06T06:21:21;16.70;;;9.47;;
15814;SDS011;8008;50.024;8.172;2023-04-06T06:23:56;12.67;;;8.70;;
15814;SDS011;8008;50.024;8.172;2023-04-06T06:26:30;11.77;;;8.57;;
15814;SDS011;8008;50.024;8.172;2023-04-06T06:29:03;16.13;;;8.57;;
15814;SDS011;8008;50.024;8.172;2023-04-06T06:31:35;14.10;;;8.73;;
15814;SDS011;8008;50.024;8.172;2023-04-06T06:34:07;12.97;;;8.60;;
15814;SDS011;8008;50.024;8.172;2023-04-06T06:36:37;14.30;;;9.27;;
15814;SDS011;8008;50.024;8.172;2023-04-06T06:39:09;13.10;;;8.97;;
15814;SDS011;8008;50.024;8.172;2023-04-06T06:41:38;14.13;;;9.07;;
15814;SDS011;8008;50.024;8.172;2023-04-06T06:44:07;13.20;;;8.60;;
15814;SDS011;8008;50.024;8.172;2023-04-06T06:46:43;11.77;;;8.30;;
15814;SDS011;8008;50.024;8.172;2023-04-06T06:49:10;13.33;;;8.77;;
15814;SDS011;8008;50.024;8.172;2023-04-06T06:51:40;10.83;;;8.43;;
15814;SDS011;8008;50.024;8.172;2023-04-06T06:54:09;12.03;;;8.60;;
15814;SDS011;8008;50.024;8.172;2023-04-06T06:56:37;12.20;;;8.47;;
15814;SDS011;8008;50.024;8.172;2023-04-06T06:59:06;13.53;;;8.80;;
15814;SDS011;8008;50.024;8.172;2023-04-06T07:01:44;13.53;;;8.70;;
15814;SDS011;8008;50.024;8.172;2023-04-06T07:07:06;11.83;;;8.77;;
15814;SDS011;8008;50.024;8.172;2023-04-06T07:09:36;14.30;;;8.80;;
15814;SDS011;8008;50.024;8.172;2023-04-06T07:12:05;12.70;;;9.17;;
15814;SDS011;8008;50.024;8.172;2023-04-06T07:14:35;15.17;;;9.07;;
15814;SDS011;8008;50.024;8.172;2023-04-06T07:17:04;12.63;;;9.33;;
15814;SDS011;8008;50.024;8.172;2023-04-06T07:22:26;15.10;;;8.73;;
15814;SDS011;8008;50.024;8.172;2023-04-06T07:24:55;16.20;;;8.90;;
15814;SDS011;8008;50.024;8.172;2023-04-06T07:27:25;12.77;;;9.67;;
15814;SDS011;8008;50.024;8.172;2023-04-06T07:29:53;16.63;;;9.73;;
15814;SDS011;8008;50.024;8.172;2023-04-06T07:32:24;12.30;;;9.23;;
15814;SDS011;8008;50.024;8.172;2023-04-06T07:34:55;15.73;;;9.57;;
15814;SDS011;8008;50.024;8.172;2023-04-06T07:37:28;13.20;;;9.70;;
15814;SDS011;8008;50.024;8.172;2023-04-06T07:39:59;16.70;;;9.00;;
15814;SDS011;8008;50.024;8.172;2023-04-06T07:45:03;13.53;;;9.30;;
15814;SDS011;8008;50.024;8.172;2023-04-06T07:47:44;13.97;;;9.23;;
15814;SDS011;8008;50.024;8.172;2023-04-06T07:50:15;13.43;;;8.97;;
15814;SDS011;8008;50.024;8.172;2023-04-06T07:52:58;14.60;;;8.77;;
15814;SDS011;8008;50.024;8.172;2023-04-06T07:55:28;14.13;;;8.93;;
15814;SDS011;8008;50.024;8.172;2023-04-06T07:57:57;14.63;;;8.90;;
15814;SDS011;8008;50.024;8.172;2023-04-06T08:00:29;14.57;;;9.27;;
15814;SDS011;8008;50.024;8.172;2023-04-06T08:02:57;15.03;;;9.17;;
15814;SDS011;8008;50.024;8.172;2023-04-06T08:05:25;16.27;;;9.37;;
15814;SDS011;8008;50.024;8.172;2023-04-06T08:07:53;13.00;;;8.83;;
15814;SDS011;8008;50.024;8.172;2023-04-06T08:10:21;13.17;;;9.40;;
15814;SDS011;8008;50.024;8.172;2023-04-06T08:12:50;14.20;;;9.13;;
15814;SDS011;8008;50.024;8.172;2023-04-06T08:15:19;13.40;;;9.17;;
15814;SDS011;8008;50.024;8.172;2023-04-06T08:17:47;13.53;;;9.30;;
15814;SDS011;8008;50.024;8.172;2023-04-06T08:20:16;13.43;;;8.60;;
15814;SDS011;8008;50.024;8.172;2023-04-06T08:22:50;16.47;;;9.17;;
15814;SDS011;8008;50.024;8.172;2023-04-06T08:25:23;14.27;;;9.13;;
15814;SDS011;8008;50.024;8.172;2023-04-06T08:27:52;13.23;;;9.13;;
15814;SDS011;8008;50.024;8.172;2023-04-06T08:30:20;13.90;;;9.07;;
15814;SDS011;8008;50.024;8.172;2023-04-06T08:32:52;14.87;;;8.47;;
15814;SDS011;8008;50.024;8.172;2023-04-06T08:35:20;13.43;;;8.73;;
15814;SDS011;8008;50.024;8.172;2023-04-06T08:40:26;13.33;;;8.83;;
15814;SDS011;8008;50.024;8.172;2023-04-06T08:42:56;16.43;;;9.13;;
15814;SDS011;8008;50.024;8.172;2023-04-06T08:45:28;12.17;;;8.83;;
15814;SDS011;8008;50.024;8.172;2023-04-06T08:47:56;15.43;;;8.90;;
15814;SDS011;8008;50.024;8.172;2023-04-06T08:50:28;13.23;;;9.03;;
15814;SDS011;8008;50.024;8.172;2023-04-06T08:52:59;14.43;;;9.07;;
15814;SDS011;8008;50.024;8.172;2023-04-06T08:55:29;17.83;;;9.07;;
15814;SDS011;8008;50.024;8.172;2023-04-06T08:58:00;17.97;;;8.77;;
15814;SDS011;8008;50.024;8.172;2023-04-06T09:00:29;17.20;;;9.10;;
15814;SDS011;8008;50.024;8.172;2023-04-06T09:02:58;15.37;;;9.23;;
15814;SDS011;8008;50.024;8.172;2023-04-06T09:05:27;12.70;;;9.07;;
15814;SDS011;8008;50.024;8.172;2023-04-06T09:08:00;14.27;;;9.30;;
15814;SDS011;8008;50.024;8.172;2023-04-06T09:10:28;12.02;;;8.70;;
15814;SDS011;8008;50.024;8.172;2023-04-06T09:13:04;13.13;;;8.70;;
15814;SDS011;8008;50.024;8.172;2023-04-06T09:15:34;11.93;;;8.10;;
15814;SDS011;8008;50.024;8.172;2023-04-06T09:18:02;13.33;;;8.77;;
15814;SDS011;8008;50.024;8.172;2023-04-06T09:20:30;18.75;;;9.63;;
15814;SDS011;8008;50.024;8.172;2023-04-06T09:22:58;16.17;;;8.88;;
15814;SDS011;8008;50.024;8.172;2023-04-06T09:25:26;12.73;;;8.48;;
15814;SDS011;8008;50.024;8.172;2023-04-06T09:28:00;11.75;;;8.68;;
15814;SDS011;8008;50.024;8.172;2023-04-06T09:30:30;13.07;;;8.80;;
15814;SDS011;8008;50.024;8.172;2023-04-06T09:32:58;14.05;;;8.85;;
15814;SDS011;8008;50.024;8.172;2023-04-06T09:35:26;13.75;;;9.10;;
15814;SDS011;8008;50.024;8.172;2023-04-06T09:37:56;12.50;;;8.57;;
15814;SDS011;8008;50.024;8.172;2023-04-06T09:40:24;15.13;;;9.00;;
15814;SDS011;8008;50.024;8.172;2023-04-06T09:42:52;13.00;;;8.82;;
15814;SDS011;8008;50.024;8.172;2023-04-06T09:45:23;12.63;;;8.80;;
15814;SDS011;8008;50.024;8.172;2023-04-06T09:47:53;14.95;;;9.27;;
15814;SDS011;8008;50.024;8.172;2023-04-06T09:50:22;12.27;;;8.55;;
15814;SDS011;8008;50.024;8.172;2023-04-06T09:52:53;15.98;;;8.55;;
15814;SDS011;8008;50.024;8.172;2023-04-06T09:55:25;13.48;;;9.10;;
15814;SDS011;8008;50.024;8.172;2023-04-06T09:57:58;13.98;;;9.55;;
15814;SDS011;8008;50.024;8.172;2023-04-06T10:00:32;12.45;;;8.50;;
15814;SDS011;8008;50.024;8.172;2023-04-06T10:03:06;13.43;;;8.32;;
15814;SDS011;8008;50.024;8.172;2023-04-06T10:05:42;14.07;;;8.57;;
15814;SDS011;8008;50.024;8.172;2023-04-06T10:08:13;13.60;;;8.80;;
15814;SDS011;8008;50.024;8.172;2023-04-06T10:10:42;11.82;;;8.00;;
15814;SDS011;8008;50.024;8.172;2023-04-06T10:13:10;11.95;;;7.68;;
15814;SDS011;8008;50.024;8.172;2023-04-06T10:15:39;13.38;;;8.45;;
15814;SDS011;8008;50.024;8.172;2023-04-06T10:18:08;13.73;;;8.45;;
15814;SDS011;8008;50.024;8.172;2023-04-06T10:20:38;19.98;;;8.30;;
15814;SDS011;8008;50.024;8.172;2023-04-06T10:23:09;13.45;;;8.23;;
15814;SDS011;8008;50.024;8.172;2023-04-06T10:25:51;11.38;;;8.07;;
15814;SDS011;8008;50.024;8.172;2023-04-06T10:28:20;11.75;;;8.05;;
15814;SDS011;8008;50.024;8.172;2023-04-06T10:30:48;12.93;;;8.25;;
15814;SDS011;8008;50.024;8.172;2023-04-06T10:33:18;12.23;;;8.18;;
15814;SDS011;8008;50.024;8.172;2023-04-06T10:35:47;12.48;;;8.68;;
15814;SDS011;8008;50.024;8.172;2023-04-06T10:38:15;13.25;;;8.50;;
15814;SDS011;8008;50.024;8.172;2023-04-06T10:40:48;10.77;;;7.85;;
15814;SDS011;8008;50.024;8.172;2023-04-06T10:43:18;13.45;;;8.30;;
15814;SDS011;8008;50.024;8.172;2023-04-06T10:45:54;11.18;;;8.27;;
15814;SDS011;8008;50.024;8.172;2023-04-06T10:48:24;11.95;;;8.23;;
15814;SDS011;8008;50.024;8.172;2023-04-06T10:51:06;15.48;;;9.95;;
15814;SDS011;8008;50.024;8.172;2023-04-06T10:53:35;15.15;;;9.55;;
15814;SDS011;8008;50.024;8.172;2023-04-06T10:56:03;16.08;;;9.45;;
15814;SDS011;8008;50.024;8.172;2023-04-06T10:58:36;12.07;;;8.40;;
15814;SDS011;8008;50.024;8.172;2023-04-06T11:01:04;11.50;;;7.80;;
15814;SDS011;8008;50.024;8.172;2023-04-06T11:03:36;13.18;;;8.05;;
15814;SDS011;8008;50.024;8.172;2023-04-06T11:06:10;10.90;;;8.02;;
15814;SDS011;8008;50.024;8.172;2023-04-06T11:08:45;12.02;;;7.95;;
15814;SDS011;8008;50.024;8.172;2023-04-06T11:11:14;12.18;;;8.45;;
15814;SDS011;8008;50.024;8.172;2023-04-06T11:13:45;12.27;;;8.68;;
15814;SDS011;8008;50.024;8.172;2023-04-06T11:16:16;12.68;;;8.45;;
15814;SDS011;8008;50.024;8.172;2023-04-06T11:18:51;11.90;;;8.65;;
15814;SDS011;8008;50.024;8.172;2023-04-06T11:21:20;13.63;;;8.55;;
15814;SDS011;8008;50.024;8.172;2023-04-06T11:24:05;14.43;;;8.52;;
15814;SDS011;8008;50.024;8.172;2023-04-06T11:26:37;12.13;;;8.00;;
15814;SDS011;8008;50.024;8.172;2023-04-06T11:29:06;12.70;;;8.18;;
15814;SDS011;8008;50.024;8.172;2023-04-06T11:31:40;14.77;;;8.20;;
15814;SDS011;8008;50.024;8.172;2023-04-06T11:34:11;12.75;;;8.40;;
15814;SDS011;8008;50.024;8.172;2023-04-06T11:36:40;11.35;;;8.10;;
15814;SDS011;8008;50.024;8.172;2023-04-06T11:39:09;14.32;;;9.02;;
15814;SDS011;8008;50.024;8.172;2023-04-06T11:41:37;13.05;;;8.60;;
15814;SDS011;8008;50.024;8.172;2023-04-06T11:44:05;14.65;;;8.90;;
15814;SDS011;8008;50.024;8.172;2023-04-06T11:46:33;13.65;;;8.68;;
15814;SDS011;8008;50.024;8.172;2023-04-06T11:49:02;11.95;;;8.45;;
15814;SDS011;8008;50.024;8.172;2023-04-06T11:51:35;13.55;;;8.85;;
15814;SDS011;8008;50.024;8.172;2023-04-06T11:54:03;16.83;;;8.82;;
15814;SDS011;8008;50.024;8.172;2023-04-06T11:56:31;11.80;;;8.02;;
15814;SDS011;8008;50.024;8.172;2023-04-06T11:58:59;16.13;;;8.75;;
15814;SDS011;8008;50.024;8.172;2023-04-06T12:01:26;12.57;;;8.02;;
15814;SDS011;8008;50.024;8.172;2023-04-06T12:03:56;15.75;;;8.82;;
15814;SDS011;8008;50.024;8.172;2023-04-06T12:06:24;12.48;;;8.77;;
15814;SDS011;8008;50.024;8.172;2023-04-06T12:08:54;11.85;;;8.57;;
15814;SDS011;8008;50.024;8.172;2023-04-06T12:11:22;11.07;;;8.10;;
15814;SDS011;8008;50.024;8.172;2023-04-06T12:13:49;13.95;;;8.35;;
15814;SDS011;8008;50.024;8.172;2023-04-06T12:16:17;11.88;;;8.80;;
15814;SDS011;8008;50.024;8.172;2023-04-06T12:18:46;12.00;;;8.90;;
15814;SDS011;8008;50.024;8.172;2023-04-06T12:21:14;12.18;;;8.43;;
15814;SDS011;8008;50.024;8.172;2023-04-06T12:23:42;12.38;;;8.43;;
15814;SDS011;8008;50.024;8.172;2023-04-06T12:26:11;12.13;;;8.38;;
15814;SDS011;8008;50.024;8.172;2023-04-06T12:28:39;12.95;;;8.65;;
15814;SDS011;8008;50.024;8.172;2023-04-06T12:31:07;12.68;;;8.50;;
15814;SDS011;8008;50.024;8.172;2023-04-06T12:33:41;14.18;;;8.30;;
15814;SDS011;8008;50.024;8.172;2023-04-06T12:36:11;12.23;;;8.35;;
15814;SDS011;8008;50.024;8.172;2023-04-06T12:38:39;12.15;;;8.82;;
15814;SDS011;8008;50.024;8.172;2023-04-06T12:41:08;13.25;;;8.65;;
15814;SDS011;8008;50.024;8.172;2023-04-06T12:43:37;18.45;;;8.80;;
15814;SDS011;8008;50.024;8.172;2023-04-06T12:46:06;13.30;;;8.38;;
15814;SDS011;8008;50.024;8.172;2023-04-06T12:48:34;13.48;;;8.55;;
15814;SDS011;8008;50.024;8.172;2023-04-06T12:51:03;13.30;;;8.65;;
15814;SDS011;8008;50.024;8.172;2023-04-06T12:53:33;14.02;;;9.52;;
15814;SDS011;8008;50.024;8.172;2023-04-06T12:56:01;14.18;;;9.50;;
15814;SDS011;8008;50.024;8.172;2023-04-06T12:58:38;16.30;;;9.68;;
15814;SDS011;8008;50.024;8.172;2023-04-06T13:01:08;14.10;;;8.68;;
15814;SDS011;8008;50.024;8.172;2023-04-06T13:03:37;13.23;;;9.18;;
15814;SDS011;8008;50.024;8.172;2023-04-06T13:06:05;11.88;;;8.65;;
15814;SDS011;8008;50.024;8.172;2023-04-06T13:08:34;13.18;;;8.95;;
15814;SDS011;8008;50.024;8.172;2023-04-06T13:11:03;13.50;;;8.38;;
15814;SDS011;8008;50.024;8.172;2023-04-06T13:13:34;12.27;;;8.32;;
15814;SDS011;8008;50.024;8.172;2023-04-06T13:16:05;12.43;;;7.88;;
15814;SDS011;8008;50.024;8.172;2023-04-06T13:18:34;11.68;;;7.70;;
15814;SDS011;8008;50.024;8.172;2023-04-06T13:21:05;10.20;;;7.22;;
15814;SDS011;8008;50.024;8.172;2023-04-06T13:23:33;12.15;;;7.65;;
15814;SDS011;8008;50.024;8.172;2023-04-06T13:26:02;11.27;;;7.50;;
15814;SDS011;8008;50.024;8.172;2023-04-06T13:28:31;7.85;;;5.57;;
15814;SDS011;8008;50.024;8.172;2023-04-06T13:31:01;6.10;;;4.63;;
15814;SDS011;8008;50.024;8.172;2023-04-06T13:33:31;9.77;;;5.22;;
15814;SDS011;8008;50.024;8.172;2023-04-06T13:35:59;7.55;;;5.13;;
15814;SDS011;8008;50.024;8.172;2023-04-06T13:38:27;7.97;;;4.85;;
15814;SDS011;8008;50.024;8.172;2023-04-06T13:40:55;6.43;;;4.43;;
15814;SDS011;8008;50.024;8.172;2023-04-06T13:43:23;8.13;;;5.57;;
15814;SDS011;8008;50.024;8.172;2023-04-06T13:45:54;5.65;;;4.57;;
15814;SDS011;8008;50.024;8.172;2023-04-06T13:48:24;6.65;;;4.18;;
15814;SDS011;8008;50.024;8.172;2023-04-06T13:50:53;5.45;;;4.40;;
15814;SDS011;8008;50.024;8.172;2023-04-06T13:53:21;5.85;;;4.57;;
15814;SDS011;8008;50.024;8.172;2023-04-06T13:55:53;8.50;;;5.00;;
15814;SDS011;8008;50.024;8.172;2023-04-06T13:58:21;6.70;;;4.50;;
15814;SDS011;8008;50.024;8.172;2023-04-06T14:00:49;6.78;;;4.45;;
15814;SDS011;8008;50.024;8.172;2023-04-06T14:03:17;6.15;;;4.38;;
15814;SDS011;8008;50.024;8.172;2023-04-06T14:05:45;5.93;;;4.00;;
15814;SDS011;8008;50.024;8.172;2023-04-06T14:08:15;5.40;;;3.97;;
15814;SDS011;8008;50.024;8.172;2023-04-06T14:10:42;5.78;;;3.97;;
15814;SDS011;8008;50.024;8.172;2023-04-06T14:13:10;5.90;;;4.10;;
15814;SDS011;8008;50.024;8.172;2023-04-06T14:15:38;7.47;;;4.65;;
15814;SDS011;8008;50.024;8.172;2023-04-06T14:18:07;8.70;;;4.57;;
15814;SDS011;8008;50.024;8.172;2023-04-06T14:20:35;8.80;;;5.10;;
15814;SDS011;8008;50.024;8.172;2023-04-06T14:23:03;7.20;;;5.43;;
15814;SDS011;8008;50.024;8.172;2023-04-06T14:25:32;8.82;;;4.97;;
15814;SDS011;8008;50.024;8.172;2023-04-06T14:28:01;6.70;;;4.95;;
15814;SDS011;8008;50.024;8.172;2023-04-06T14:30:29;6.75;;;4.85;;
15814;SDS011;8008;50.024;8.172;2023-04-06T14:32:58;7.18;;;5.00;;
15814;SDS011;8008;50.024;8.172;2023-04-06T14:35:26;6.78;;;5.22;;
15814;SDS011;8008;50.024;8.172;2023-04-06T14:37:55;7.05;;;4.80;;
15814;SDS011;8008;50.024;8.172;2023-04-06T14:40:24;8.77;;;5.05;;
15814;SDS011;8008;50.024;8.172;2023-04-06T14:42:53;6.88;;;4.93;;
15814;SDS011;8008;50.024;8.172;2023-04-06T14:45:22;9.15;;;4.90;;
15814;SDS011;8008;50.024;8.172;2023-04-06T14:47:50;7.38;;;4.80;;
15814;SDS011;8008;50.024;8.172;2023-04-06T14:50:18;9.25;;;5.63;;
15814;SDS011;8008;50.024;8.172;2023-04-06T14:52:46;9.13;;;5.53;;
15814;SDS011;8008;50.024;8.172;2023-04-06T14:55:14;9.02;;;5.72;;
15814;SDS011;8008;50.024;8.172;2023-04-06T14:57:42;9.82;;;5.88;;
15814;SDS011;8008;50.024;8.172;2023-04-06T15:00:12;7.25;;;5.20;;
15814;SDS011;8008;50.024;8.172;2023-04-06T15:02:40;9.00;;;6.25;;
15814;SDS011;8008;50.024;8.172;2023-04-06T15:05:09;8.50;;;5.35;;
15814;SDS011;8008;50.024;8.172;2023-04-06T15:07:37;9.07;;;6.00;;
15814;SDS011;8008;50.024;8.172;2023-04-06T15:10:06;9.68;;;5.55;;
15814;SDS011;8008;50.024;8.172;2023-04-06T15:12:37;10.00;;;6.40;;
15814;SDS011;8008;50.024;8.172;2023-04-06T15:15:06;8.23;;;5.32;;
15814;SDS011;8008;50.024;8.172;2023-04-06T15:17:35;8.52;;;5.40;;
15814;SDS011;8008;50.024;8.172;2023-04-06T15:20:04;9.35;;;5.60;;
15814;SDS011;8008;50.024;8.172;2023-04-06T15:22:32;8.70;;;5.00;;
15814;SDS011;8008;50.024;8.172;2023-04-06T15:25:00;9.35;;;5.32;;
15814;SDS011;8008;50.024;8.172;2023-04-06T15:27:28;9.68;;;5.57;;
15814;SDS011;8008;50.024;8.172;2023-04-06T15:29:56;9.15;;;5.43;;
15814;SDS011;8008;50.024;8.172;2023-04-06T15:32:25;8.38;;;5.03;;
15814;SDS011;8008;50.024;8.172;2023-04-06T15:37:26;8.48;;;4.43;;
15814;SDS011;8008;50.024;8.172;2023-04-06T15:39:54;7.75;;;3.83;;
15814;SDS011;8008;50.024;8.172;2023-04-06T15:42:23;4.85;;;3.30;;
15814;SDS011;8008;50.024;8.172;2023-04-06T15:44:51;6.80;;;3.22;;
15814;SDS011;8008;50.024;8.172;2023-04-06T15:47:19;5.00;;;3.20;;
15814;SDS011;8008;50.024;8.172;2023-04-06T15:49:47;3.97;;;3.22;;
15814;SDS011;8008;50.024;8.172;2023-04-06T15:52:15;5.20;;;3.20;;
15814;SDS011;8008;50.024;8.172;2023-04-06T15:54:44;5.45;;;3.20;;
15814;SDS011;8008;50.024;8.172;2023-04-06T15:57:12;5.88;;;3.65;;
15814;SDS011;8008;50.024;8.172;2023-04-06T15:59:40;5.05;;;3.55;;
15814;SDS011;8008;50.024;8.172;2023-04-06T16:02:08;5.22;;;3.72;;
15814;SDS011;8008;50.024;8.172;2023-04-06T16:04:36;5.40;;;3.78;;
15814;SDS011;8008;50.024;8.172;2023-04-06T16:07:04;5.75;;;3.22;;
15814;SDS011;8008;50.024;8.172;2023-04-06T16:09:32;6.63;;;3.38;;
15814;SDS011;8008;50.024;8.172;2023-04-06T16:12:02;4.63;;;3.60;;
15814;SDS011;8008;50.024;8.172;2023-04-06T16:14:30;6.00;;;3.72;;
15814;SDS011;8008;50.024;8.172;2023-04-06T16:16:58;6.57;;;3.70;;
15814;SDS011;8008;50.024;8.172;2023-04-06T16:19:26;4.40;;;3.30;;
15814;SDS011;8008;50.024;8.172;2023-04-06T16:21:54;3.50;;;3.10;;
15814;SDS011;8008;50.024;8.172;2023-04-06T16:24:22;6.75;;;3.40;;
15814;SDS011;8008;50.024;8.172;2023-04-06T16:26:50;6.55;;;4.07;;
15814;SDS011;8008;50.024;8.172;2023-04-06T16:29:20;11.05;;;5.82;;
15814;SDS011;8008;50.024;8.172;2023-04-06T16:31:48;8.13;;;5.07;;
15814;SDS011;8008;50.024;8.172;2023-04-06T16:34:16;6.32;;;4.50;;
15814;SDS011;8008;50.024;8.172;2023-04-06T16:36:44;6.57;;;3.83;;
15814;SDS011;8008;50.024;8.172;2023-04-06T16:39:12;5.68;;;4.25;;
15814;SDS011;8008;50.024;8.172;2023-04-06T16:41:39;5.50;;;4.00;;
15814;SDS011;8008;50.024;8.172;2023-04-06T16:44:07;6.30;;;4.30;;
15814;SDS011;8008;50.024;8.172;2023-04-06T16:46:37;6.85;;;4.03;;
15814;SDS011;8008;50.024;8.172;2023-04-06T16:49:06;7.32;;;3.72;;
15814;SDS011;8008;50.024;8.172;2023-04-06T16:51:34;4.80;;;3.50;;
15814;SDS011;8008;50.024;8.172;2023-04-06T16:54:03;4.07;;;3.28;;
15814;SDS011;8008;50.024;8.172;2023-04-06T16:56:31;4.85;;;3.33;;
15814;SDS011;8008;50.024;8.172;2023-04-06T16:58:59;4.93;;;3.10;;
15814;SDS011;8008;50.024;8.172;2023-04-06T17:01:27;5.18;;;3.50;;
15814;SDS011;8008;50.024;8.172;2023-04-06T17:03:57;5.55;;;4.10;;
15814;SDS011;8008;50.024;8.172;2023-04-06T17:06:25;4.72;;;3.55;;
15814;SDS011;8008;50.024;8.172;2023-04-06T17:08:53;3.42;;;3.03;;
15814;SDS011;8008;50.024;8.172;2023-04-06T17:11:22;7.82;;;3.55;;
15814;SDS011;8008;50.024;8.172;2023-04-06T17:14:10;5.35;;;3.63;;
15814;SDS011;8008;50.024;8.172;2023-04-06T17:16:38;4.18;;;3.60;;
15814;SDS011;8008;50.024;8.172;2023-04-06T17:19:07;5.40;;;3.90;;
15814;SDS011;8008;50.024;8.172;2023-04-06T17:21:35;6.07;;;4.20;;
15814;SDS011;8008;50.024;8.172;2023-04-06T17:24:05;6.35;;;4.10;;
15814;SDS011;8008;50.024;8.172;2023-04-06T17:26:33;6.53;;;4.47;;
15814;SDS011;8008;50.024;8.172;2023-04-06T17:29:01;5.57;;;3.90;;
15814;SDS011;8008;50.024;8.172;2023-04-06T17:31:29;5.53;;;4.10;;
15814;SDS011;8008;50.024;8.172;2023-04-06T17:33:57;6.20;;;3.67;;
15814;SDS011;8008;50.024;8.172;2023-04-06T17:36:27;5.88;;;3.88;;
15814;SDS011;8008;50.024;8.172;2023-04-06T17:38:55;6.85;;;4.00;;
15814;SDS011;8008;50.024;8.172;2023-04-06T17:41:23;4.93;;;3.50;;
15814;SDS011;8008;50.024;8.172;2023-04-06T17:43:51;5.20;;;3.70;;
15814;SDS011;8008;50.024;8.172;2023-04-06T17:46:19;6.15;;;3.33;;
15814;SDS011;8008;50.024;8.172;2023-04-06T17:48:49;4.78;;;3.30;;
15814;SDS011;8008;50.024;8.172;2023-04-06T17:51:18;6.70;;;3.90;;
15814;SDS011;8008;50.024;8.172;2023-04-06T17:53:47;4.95;;;3.83;;
15814;SDS011;8008;50.024;8.172;2023-04-06T17:56:16;6.57;;;3.85;;
15814;SDS011;8008;50.024;8.172;2023-04-06T17:58:44;4.60;;;3.67;;
15814;SDS011;8008;50.024;8.172;2023-04-06T18:01:11;6.53;;;4.20;;
15814;SDS011;8008;50.024;8.172;2023-04-06T18:03:39;8.60;;;5.97;;
15814;SDS011;8008;50.024;8.172;2023-04-06T18:06:08;6.80;;;4.95;;
15814;SDS011;8008;50.024;8.172;2023-04-06T18:08:37;6.80;;;5.03;;
15814;SDS011;8008;50.024;8.172;2023-04-06T18:11:06;8.10;;;5.15;;
15814;SDS011;8008;50.024;8.172;2023-04-06T18:13:36;6.40;;;5.43;;
15814;SDS011;8008;50.024;8.172;2023-04-06T18:16:05;7.65;;;5.70;;
15814;SDS011;8008;50.024;8.172;2023-04-06T18:18:33;7.25;;;5.55;;
15814;SDS011;8008;50.024;8.172;2023-04-06T18:21:04;5.37;;;4.83;;
15814;SDS011;8008;50.024;8.172;2023-04-06T18:23:33;6.70;;;5.27;;